Time;durP1;ratioP1;P1;durP2;ratioP2;P2;SDS_P1;SDS_P2;PMS_P1;PMS_P2;Temp;Humidity;BMP_temperature;BMP_pressure;BME280_temperature;BME280_humidity;BME280_pressure;Samples;Min_cycle;Max_cycle;Signal;HPM_P1;HPM_P2
2024/03/01 00:01:21;;;;;;;47.17;21.20;;;;;;;9.92;91.56;99838.13;5030662;28;20510;-26
2024/03/01 00:03:47;;;;;;;46.20;22.33;;;;;;;10.16;90.14;99836.78;5030489;28;20033;-25
2024/03/01 00:06:13;;;;;;;43.67;21.05;;;;;;;10.30;89.23;99856.28;5031956;28;20024;-26
2024/03/01 00:08:39;;;;;;;49.83;22.35;;;;;;;10.21;89.98;99857.50;5050292;28;20025;-26
2024/03/01 00:11:04;;;;;;;47.72;22.42;;;;;;;10.05;90.54;99866.59;5050551;28;20086;-26
2024/03/01 00:13:29;;;;;;;46.35;22.48;;;;;;;9.93;90.76;99867.16;5050424;28;20033;-26
2024/03/01 00:15:55;;;;;;;45.88;21.92;;;;;;;9.86;91.63;99858.34;5050273;28;20056;-26
2024/03/01 00:18:20;;;;;;;48.75;22.58;;;;;;;9.93;91.65;99853.03;5050195;28;20025;-28
2024/03/01 00:20:46;;;;;;;46.25;20.52;;;;;;;9.87;91.53;99861.81;5050399;28;20345;-28
2024/03/01 00:23:11;;;;;;;46.08;22.45;;;;;;;9.96;90.88;99855.31;5054090;28;20032;-27
2024/03/01 00:25:36;;;;;;;45.35;22.05;;;;;;;9.68;91.93;99869.47;5053769;28;20064;-27
2024/03/01 00:28:03;;;;;;;49.80;22.63;;;;;;;9.71;91.92;99847.81;5054089;28;20445;-26
2024/03/01 00:30:28;;;;;;;44.50;21.30;;;;;;;9.52;91.97;99845.84;5053376;28;20025;-27
2024/03/01 00:32:54;;;;;;;43.50;20.58;;;;;;;9.77;91.97;99833.75;5053602;28;20163;-27
2024/03/01 00:35:19;;;;;;;47.75;21.52;;;;;;;9.84;90.97;99819.66;5054005;28;20033;-28
2024/03/01 00:37:45;;;;;;;45.00;22.02;;;;;;;9.78;89.72;99813.28;5054005;28;20033;-27
2024/03/01 00:40:10;;;;;;;45.22;21.52;;;;;;;9.75;90.77;99806.53;5053563;28;20032;-27
2024/03/01 00:42:38;;;;;;;50.75;22.10;;;;;;;9.76;89.81;99807.34;5053845;28;20029;-27
2024/03/01 00:45:04;;;;;;;54.13;22.77;;;;;;;9.54;90.65;99801.31;5053675;28;20032;-27
2024/03/01 00:47:29;;;;;;;45.55;20.80;;;;;;;9.49;91.59;99796.56;5053529;28;20025;-27
2024/03/01 00:49:54;;;;;;;45.58;22.73;;;;;;;9.43;91.55;99793.91;5053313;28;20040;-27
2024/03/01 00:52:20;;;;;;;51.35;20.98;;;;;;;9.23;91.78;99797.22;5053322;28;20139;-26
2024/03/01 00:54:45;;;;;;;45.58;20.88;;;;;;;9.30;91.81;99803.41;5053543;28;20514;-26
2024/03/01 00:57:10;;;;;;;53.38;22.55;;;;;;;9.36;92.42;99799.97;5053619;28;20029;-26
2024/03/01 00:59:36;;;;;;;45.45;22.02;;;;;;;9.17;92.56;99792.69;5053294;28;20032;-25
2024/03/01 01:02:01;;;;;;;44.97;20.40;;;;;;;8.96;94.11;99775.78;5053555;28;20033;-24
2024/03/01 01:04:27;;;;;;;51.13;24.05;;;;;;;8.88;95.15;99777.75;5053040;28;20056;-25
2024/03/01 01:06:52;;;;;;;47.55;21.85;;;;;;;8.86;95.17;99777.13;5053161;28;20055;-25
2024/03/01 01:09:17;;;;;;;49.20;22.30;;;;;;;9.08;94.18;99777.91;5053479;28;20029;-27
2024/03/01 01:11:43;;;;;;;52.33;23.50;;;;;;;9.02;93.57;99765.41;5053148;28;20434;-26
2024/03/01 01:14:08;;;;;;;50.45;23.38;;;;;;;9.07;94.72;99765.66;5053308;28;20036;-26
2024/03/01 01:16:33;;;;;;;51.85;22.80;;;;;;;9.17;93.93;99772.25;5052851;28;20464;-26
2024/03/01 01:18:59;;;;;;;47.90;22.67;;;;;;;9.28;92.80;99770.91;5053223;28;20059;-26
2024/03/01 01:21:24;;;;;;;52.47;23.70;;;;;;;9.22;92.98;99771.69;5053096;28;20393;-26
2024/03/01 01:23:50;;;;;;;48.88;21.75;;;;;;;9.08;93.38;99769.94;5052832;28;20024;-25
2024/03/01 01:26:15;;;;;;;50.00;22.48;;;;;;;8.86;95.16;99762.03;5052471;28;20068;-26
2024/03/01 01:28:41;;;;;;;54.70;23.40;;;;;;;8.84;95.08;99748.13;5052623;28;20107;-27
2024/03/01 01:31:08;;;;;;;49.88;22.50;;;;;;;8.62;96.08;99742.00;5044719;28;20036;-26
2024/03/01 01:33:33;;;;;;;52.63;24.08;;;;;;;8.83;95.38;99738.50;5032459;28;20029;-26
2024/03/01 01:35:59;;;;;;;55.40;25.23;;;;;;;8.85;95.27;99728.53;5032824;28;20409;-26
2024/03/01 01:38:24;;;;;;;51.55;21.63;;;;;;;8.77;94.86;99718.88;5033192;28;20421;-26
2024/03/01 01:40:51;;;;;;;55.90;23.40;;;;;;;8.52;95.04;99707.84;5032656;28;20052;-26
2024/03/01 01:43:16;;;;;;;51.53;23.30;;;;;;;8.76;95.01;99714.59;5032394;28;20032;-26
2024/03/01 01:45:42;;;;;;;51.58;23.85;;;;;;;8.89;93.72;99711.22;5032614;28;20029;-26
2024/03/01 01:48:07;;;;;;;55.95;24.25;;;;;;;8.89;94.42;99734.25;5032745;28;20072;-26
2024/03/01 01:50:34;;;;;;;55.35;25.15;;;;;;;9.03;94.01;99732.56;5032616;28;20034;-26
2024/03/01 01:53:01;;;;;;;56.78;26.92;;;;;;;8.86;94.25;99724.06;5032887;28;20025;-26
2024/03/01 01:55:27;;;;;;;58.38;28.02;;;;;;;8.95;93.98;99726.38;5032884;28;20370;-26
2024/03/01 01:57:52;;;;;;;54.03;26.42;;;;;;;8.75;94.27;99717.44;5032448;28;20040;-26
2024/03/01 02:00:18;;;;;;;56.95;26.45;;;;;;;8.73;94.45;99714.16;5032092;28;20456;-26
2024/03/01 02:02:45;;;;;;;50.72;23.73;;;;;;;8.44;94.74;99709.84;5031155;28;20021;-26
2024/03/01 02:05:11;;;;;;;51.80;23.45;;;;;;;8.33;96.03;99706.63;5032483;28;20122;-26
2024/03/01 02:07:37;;;;;;;56.72;24.58;;;;;;;8.43;96.80;99701.03;5031763;28;20053;-26
2024/03/01 02:10:16;;;;;;;54.28;23.55;;;;;;;8.45;95.87;99696.34;5032207;28;20092;-26
2024/03/01 02:12:54;;;;;;;51.42;23.35;;;;;;;8.51;95.36;99692.13;5045990;28;20032;-26
2024/03/01 02:15:20;;;;;;;52.60;22.83;;;;;;;8.58;95.37;99691.16;5051366;28;20029;-26
2024/03/01 02:17:45;;;;;;;55.67;24.05;;;;;;;8.50;95.56;99691.31;5052335;28;20161;-27
2024/03/01 02:20:12;;;;;;;57.00;24.58;;;;;;;8.46;96.31;99684.75;5051964;28;20416;-27
2024/03/01 02:22:39;;;;;;;58.80;25.63;;;;;;;8.45;95.92;99684.94;5051647;28;20028;-27
2024/03/01 02:25:05;;;;;;;55.35;26.38;;;;;;;8.41;95.89;99679.16;5051718;28;20061;-27
2024/03/01 02:27:31;;;;;;;54.85;24.63;;;;;;;8.51;95.39;99697.44;5051466;28;20032;-27
2024/03/01 02:29:56;;;;;;;56.78;24.70;;;;;;;8.36;95.26;99684.25;5051431;28;20083;-27
2024/03/01 02:32:22;;;;;;;65.35;27.00;;;;;;;8.40;96.20;99685.50;5048653;28;20029;-27
2024/03/01 02:34:47;;;;;;;63.30;25.98;;;;;;;8.46;96.24;99692.72;5045010;28;20037;-27
2024/03/01 02:37:12;;;;;;;60.30;26.67;;;;;;;8.33;95.70;99681.94;5031562;28;20075;-27
2024/03/01 02:39:38;;;;;;;62.88;27.25;;;;;;;8.43;96.76;99690.44;5051274;28;20079;-27
2024/03/01 02:42:03;;;;;;;55.15;24.25;;;;;;;8.02;95.72;99656.59;5054368;28;20394;-37
2024/03/01 02:44:29;;;;;;;63.53;26.83;;;;;;;8.20;96.79;99683.44;5051834;28;20560;-40
2024/03/01 02:46:54;;;;;;;70.47;27.30;;;;;;;8.06;97.94;99668.44;5051668;28;20087;-39
2024/03/01 02:49:19;;;;;;;66.70;26.98;;;;;;;8.04;98.23;99662.53;5051266;28;20401;-37
2024/03/01 02:51:45;;;;;;;58.38;25.90;;;;;;;8.05;98.62;99663.34;5051259;28;20162;-40
2024/03/01 02:54:10;;;;;;;65.97;28.23;;;;;;;8.10;97.09;99663.59;5051794;28;20031;-36
2024/03/01 02:56:35;;;;;;;66.35;26.60;;;;;;;8.11;97.92;99667.88;5051996;28;20017;-39
2024/03/01 02:59:01;;;;;;;66.97;26.42;;;;;;;8.25;97.35;99660.88;5052071;28;20027;-39
2024/03/01 03:01:26;;;;;;;67.45;26.63;;;;;;;8.11;96.79;99667.88;5051662;28;20017;-39
2024/03/01 03:03:52;;;;;;;58.90;24.73;;;;;;;8.03;97.04;99663.50;5051165;28;20595;-39
2024/03/01 03:06:17;;;;;;;71.80;26.35;;;;;;;8.06;97.78;99657.03;5051139;28;20099;-39
2024/03/01 03:08:42;;;;;;;62.67;23.67;;;;;;;7.67;99.21;99648.47;5051631;28;20040;-26
2024/03/01 03:11:08;;;;;;;62.78;25.30;;;;;;;7.76;99.44;99663.22;5051234;28;20017;-40
2024/03/01 03:13:34;;;;;;;68.90;24.27;;;;;;;7.74;100.00;99659.94;5051807;28;20044;-40
2024/03/01 03:16:00;;;;;;;70.15;26.73;;;;;;;7.72;100.00;99656.66;5051732;28;20428;-38
2024/03/01 03:18:25;;;;;;;76.20;28.45;;;;;;;7.55;100.00;99652.59;5051547;28;20381;-40
2024/03/01 03:20:50;;;;;;;74.50;25.80;;;;;;;7.69;100.00;99658.88;5051127;28;20477;-40
2024/03/01 03:23:16;;;;;;;80.38;27.20;;;;;;;7.91;99.71;99665.84;5050568;28;20052;-41
2024/03/01 03:25:41;;;;;;;83.30;28.42;;;;;;;8.07;98.17;99659.47;5050621;28;20110;-40
2024/03/01 03:28:09;;;;;;;71.35;26.48;;;;;;;7.77;99.32;99659.59;5050657;28;20025;-39
2024/03/01 03:30:34;;;;;;;79.32;28.35;;;;;;;7.61;100.00;99651.84;5042137;28;20021;-39
2024/03/01 03:33:00;;;;;;;104.25;31.38;;;;;;;7.59;100.00;99653.88;5038129;28;20044;-39
2024/03/01 03:35:25;;;;;;;78.53;27.38;;;;;;;7.48;100.00;99643.75;5030865;28;20240;-39
2024/03/01 03:37:50;;;;;;;92.32;28.98;;;;;;;7.34;100.00;99651.53;5030618;28;20048;-39
2024/03/01 03:40:16;;;;;;;94.97;29.27;;;;;;;7.63;100.00;99658.63;5030553;28;20025;-39
2024/03/01 03:42:42;;;;;;;92.15;30.35;;;;;;;7.52;100.00;99659.09;5030795;28;20018;-27
2024/03/01 03:45:08;;;;;;;88.78;27.55;;;;;;;7.19;100.00;99663.97;5031006;28;20465;-27
2024/03/01 03:47:35;;;;;;;85.63;27.92;;;;;;;7.13;100.00;99657.59;5030772;28;20021;-26
2024/03/01 03:50:06;;;;;;;103.63;29.88;;;;;;;7.53;100.00;99659.91;5040890;28;20029;-27
2024/03/01 03:52:32;;;;;;;102.63;31.58;;;;;;;7.59;100.00;99649.38;5050697;28;20020;-27
2024/03/01 03:54:57;;;;;;;112.18;33.40;;;;;;;7.80;100.00;99661.84;5051301;28;20074;-25
2024/03/01 03:57:23;;;;;;;113.57;33.33;;;;;;;7.94;100.00;99641.63;5053390;28;20025;-27
2024/03/01 03:59:48;;;;;;;106.50;31.77;;;;;;;7.80;100.00;99643.31;5040325;28;20072;-40
2024/03/01 04:02:13;;;;;;;106.45;31.70;;;;;;;7.58;100.00;99649.59;5034963;28;20036;-27
2024/03/01 04:04:39;;;;;;;102.68;32.72;;;;;;;7.63;100.00;99657.78;5035011;28;20028;-27
2024/03/01 04:07:04;;;;;;;84.82;27.17;;;;;;;7.47;100.00;99655.38;5035199;28;20470;-39
2024/03/01 04:09:30;;;;;;;84.25;27.63;;;;;;;7.26;100.00;99656.13;5033576;28;20026;-40
2024/03/01 04:11:56;;;;;;;97.20;29.50;;;;;;;7.20;100.00;99655.03;5034536;28;20036;-40
2024/03/01 04:14:21;;;;;;;88.75;29.60;;;;;;;7.15;100.00;99652.91;5034291;28;20064;-26
2024/03/01 04:16:46;;;;;;;86.55;30.20;;;;;;;7.27;100.00;99624.16;5034246;28;20049;-27
2024/03/01 04:19:12;;;;;;;92.03;30.35;;;;;;;7.66;100.00;99649.47;5034184;28;20022;-29
2024/03/01 04:21:37;;;;;;;90.35;29.10;;;;;;;7.67;100.00;99639.69;5034438;28;20026;-40
2024/03/01 04:24:11;;;;;;;88.53;28.75;;;;;;;7.42;100.00;99640.03;5034745;28;20033;-41
2024/03/01 04:26:36;;;;;;;79.22;26.98;;;;;;;7.55;100.00;99628.78;5033481;28;20544;-41
2024/03/01 04:29:03;;;;;;;83.20;29.15;;;;;;;7.49;100.00;99634.81;5044322;28;20033;-27
2024/03/01 04:31:29;;;;;;;85.82;28.58;;;;;;;7.33;100.00;99623.44;5043212;28;20517;-26
2024/03/01 04:33:54;;;;;;;87.93;29.48;;;;;;;7.53;100.00;99634.25;5034949;28;20101;-27
2024/03/01 04:36:19;;;;;;;76.05;27.23;;;;;;;7.28;100.00;99615.22;5034024;28;20114;-27
2024/03/01 04:38:45;;;;;;;79.22;27.48;;;;;;;7.54;100.00;99630.63;5033473;28;20021;-26
2024/03/01 04:41:18;;;;;;;89.28;28.45;;;;;;;7.53;100.00;99623.66;5034021;28;20532;-27
2024/03/01 04:43:43;;;;;;;80.53;28.20;;;;;;;7.37;100.00;99624.72;5033976;28;20096;-27
2024/03/01 04:46:09;;;;;;;84.07;28.25;;;;;;;7.32;100.00;99640.31;5033500;28;20108;-27
2024/03/01 04:48:34;;;;;;;99.78;30.50;;;;;;;7.44;100.00;99638.84;5033793;28;20022;-27
2024/03/01 04:50:59;;;;;;;91.53;30.70;;;;;;;7.43;100.00;99631.91;5033593;28;20496;-26
2024/03/01 04:53:25;;;;;;;82.00;29.40;;;;;;;7.35;100.00;99645.25;5033267;28;20021;-27
2024/03/01 04:55:50;;;;;;;91.30;29.45;;;;;;;7.72;100.00;99656.66;5033196;28;20023;-26
2024/03/01 04:58:16;;;;;;;80.05;28.55;;;;;;;7.45;100.00;99642.31;5034002;28;20083;-26
2024/03/01 05:00:42;;;;;;;88.45;29.38;;;;;;;7.71;100.00;99652.41;5033382;28;20021;-27
2024/03/01 05:03:08;;;;;;;81.38;28.23;;;;;;;7.80;100.00;99645.13;5032455;28;20056;-26
2024/03/01 05:05:33;;;;;;;88.32;29.48;;;;;;;7.75;100.00;99640.41;5033695;28;20060;-26
2024/03/01 05:07:59;;;;;;;77.18;27.98;;;;;;;7.65;100.00;99642.53;5033120;28;20028;-28
2024/03/01 05:10:24;;;;;;;71.65;25.73;;;;;;;7.13;100.00;99627.66;5033786;28;20108;-27
2024/03/01 05:12:50;;;;;;;84.45;28.67;;;;;;;7.54;100.00;99629.78;5033448;28;20486;-27
2024/03/01 05:15:16;;;;;;;95.43;30.42;;;;;;;8.68;100.00;99636.97;5033317;28;20048;-26
2024/03/01 05:17:43;;;;;;;85.53;29.35;;;;;;;8.53;100.00;99645.84;5033783;28;20033;-27
2024/03/01 05:20:12;;;;;;;77.40;28.58;;;;;;;8.63;100.00;99655.31;5033394;28;20037;-27
2024/03/01 05:22:38;;;;;;;69.15;24.83;;;;;;;8.38;98.83;99659.16;5033470;28;20021;-27
2024/03/01 05:25:16;;;;;;;71.03;26.42;;;;;;;7.69;99.36;99653.56;5031212;28;20410;-27
2024/03/01 05:27:42;;;;;;;72.22;28.83;;;;;;;7.79;99.21;99657.56;5033417;28;20033;-27
2024/03/01 05:30:10;;;;;;;81.57;28.83;;;;;;;8.00;99.65;99650.66;5046911;28;20040;-41
2024/03/01 05:32:36;;;;;;;75.80;27.65;;;;;;;7.86;100.00;99654.97;5040861;28;20322;-27
2024/03/01 05:35:01;;;;;;;76.85;28.42;;;;;;;8.27;98.25;99640.31;5033161;28;20102;-27
2024/03/01 05:37:26;;;;;;;75.88;28.90;;;;;;;8.11;99.66;99657.25;5032867;28;20029;-26
2024/03/01 05:39:52;;;;;;;75.53;28.77;;;;;;;8.15;97.38;99659.38;5047731;28;20020;-27
2024/03/01 05:42:17;;;;;;;68.78;26.90;;;;;;;7.95;97.17;99663.66;5050822;28;20021;-27
2024/03/01 05:44:42;;;;;;;70.93;27.10;;;;;;;7.88;98.78;99668.88;5036499;28;20473;-28
2024/03/01 05:47:08;;;;;;;76.75;27.30;;;;;;;7.94;98.28;99677.88;5031589;28;20109;-27
2024/03/01 05:49:33;;;;;;;78.57;27.48;;;;;;;7.72;99.32;99690.31;5031384;28;20022;-26
2024/03/01 05:51:59;;;;;;;68.78;26.60;;;;;;;7.43;100.00;99694.63;5032112;28;20470;-27
2024/03/01 05:54:24;;;;;;;79.13;27.63;;;;;;;7.48;100.00;99670.25;5047191;28;20021;-26
2024/03/01 05:56:50;;;;;;;71.22;28.00;;;;;;;7.41;100.00;99665.69;5051932;28;20453;-27
2024/03/01 05:59:15;;;;;;;63.92;24.83;;;;;;;6.97;100.00;99666.53;5047110;28;20101;-27
2024/03/01 06:01:41;;;;;;;76.90;28.75;;;;;;;7.42;100.00;99687.69;5044758;28;20040;-27
2024/03/01 06:04:10;;;;;;;68.93;27.55;;;;;;;7.38;100.00;99689.88;5038432;28;20025;-27
2024/03/01 06:06:35;;;;;;;67.82;26.45;;;;;;;7.19;100.00;99680.66;5052559;28;20025;-26
2024/03/01 06:09:01;;;;;;;66.80;27.88;;;;;;;7.90;100.00;99688.06;5039184;28;20094;-27
2024/03/01 06:11:26;;;;;;;77.55;28.95;;;;;;;7.75;99.50;99697.84;5052296;28;20048;-26
2024/03/01 06:13:52;;;;;;;72.00;28.00;;;;;;;7.74;99.35;99710.28;5052587;28;20067;-25
2024/03/01 06:16:17;;;;;;;64.22;25.85;;;;;;;7.73;98.28;99687.47;5052069;28;20087;-27
2024/03/01 06:18:43;;;;;;;66.40;25.35;;;;;;;7.43;100.00;99668.97;5038228;28;20401;-27
2024/03/01 06:21:08;;;;;;;67.95;26.25;;;;;;;7.52;99.95;99660.91;5036881;28;20089;-26
2024/03/01 06:23:33;;;;;;;72.97;27.35;;;;;;;7.58;99.76;99726.41;5051754;28;20029;-25
2024/03/01 06:25:59;;;;;;;74.70;29.05;;;;;;;7.57;100.00;99690.31;5051886;28;20471;-26
2024/03/01 06:28:24;;;;;;;72.07;28.02;;;;;;;7.48;100.00;99696.72;5052176;28;20021;-27
2024/03/01 06:30:49;;;;;;;84.75;29.38;;;;;;;7.58;100.00;99698.09;5052027;28;20455;-26
2024/03/01 06:33:15;;;;;;;80.88;29.83;;;;;;;7.66;100.00;99689.22;5051848;28;20017;-27
2024/03/01 06:35:40;;;;;;;73.90;27.80;;;;;;;7.60;99.35;99685.47;5047645;28;20028;-29
2024/03/01 06:38:06;;;;;;;73.10;27.45;;;;;;;7.53;100.00;99686.41;5040424;28;20064;-27
2024/03/01 06:40:34;;;;;;;83.55;30.40;;;;;;;7.63;99.53;99673.69;5040213;28;20025;-27
2024/03/01 06:42:59;;;;;;;76.03;27.67;;;;;;;7.70;98.93;99684.38;5040705;28;20101;-27
2024/03/01 06:45:24;;;;;;;78.45;28.50;;;;;;;7.91;100.00;99695.00;5044380;28;20025;-27
2024/03/01 06:47:50;;;;;;;81.18;29.73;;;;;;;8.38;98.65;99688.31;5032444;28;20014;-27
2024/03/01 06:50:15;;;;;;;88.30;29.85;;;;;;;8.63;95.25;99697.75;5040544;28;20025;-27
2024/03/01 06:52:40;;;;;;;78.10;29.50;;;;;;;8.83;93.98;99719.94;5051920;28;20028;-28
2024/03/01 06:55:07;;;;;;;83.13;30.40;;;;;;;9.08;92.01;99733.63;5051045;28;20463;-27
2024/03/01 06:57:33;;;;;;;79.53;28.42;;;;;;;8.56;93.99;99718.91;5051138;28;20112;-27
2024/03/01 06:59:58;;;;;;;72.85;28.42;;;;;;;8.59;94.16;99718.53;5051399;28;20144;-29
2024/03/01 07:02:24;;;;;;;78.53;29.10;;;;;;;8.85;93.05;99706.47;5049908;28;20508;-27
2024/03/01 07:04:50;;;;;;;76.78;29.55;;;;;;;9.33;90.24;99704.75;5049420;28;20028;-28
2024/03/01 07:07:18;;;;;;;76.97;28.80;;;;;;;9.26;89.94;99701.25;5049515;28;20091;-28
2024/03/01 07:09:44;;;;;;;85.03;30.33;;;;;;;9.45;88.55;99701.56;5049441;28;20039;-27
2024/03/01 07:12:09;;;;;;;85.53;30.17;;;;;;;9.73;88.05;99698.81;5049495;28;20021;-28
2024/03/01 07:14:35;;;;;;;78.07;28.88;;;;;;;9.42;88.14;99713.38;5049489;28;20082;-28
2024/03/01 07:17:00;;;;;;;70.03;26.58;;;;;;;9.16;89.16;99706.09;5049075;28;20033;-28
2024/03/01 07:19:26;;;;;;;70.10;27.27;;;;;;;9.40;87.96;99691.50;5049260;28;20075;-27
2024/03/01 07:21:51;;;;;;;70.88;27.20;;;;;;;9.58;87.62;99680.34;5050605;28;20056;-27
2024/03/01 07:24:17;;;;;;;76.82;26.85;;;;;;;9.72;86.90;99687.34;5051247;28;20025;-27
2024/03/01 07:26:42;;;;;;;74.00;27.27;;;;;;;9.88;85.83;99688.00;5050735;28;20130;-29
2024/03/01 07:29:08;;;;;;;73.72;27.25;;;;;;;9.55;85.83;99688.72;5051039;28;20021;-27
2024/03/01 07:31:33;;;;;;;75.10;28.48;;;;;;;9.55;86.96;99694.03;5056973;28;20060;-28
2024/03/01 07:33:58;;;;;;;72.55;27.55;;;;;;;9.59;86.54;99690.78;5057690;28;20405;-27
2024/03/01 07:36:24;;;;;;;63.35;24.35;;;;;;;8.78;90.01;99686.03;5057503;28;20068;-27
2024/03/01 07:38:49;;;;;;;61.28;24.52;;;;;;;8.74;90.73;99700.69;5057334;28;20029;-27
2024/03/01 07:41:18;;;;;;;61.65;25.63;;;;;;;8.51;92.82;99681.50;5057488;28;20055;-28
2024/03/01 07:43:44;;;;;;;64.65;25.65;;;;;;;8.98;90.97;99691.47;5057191;28;20401;-28
2024/03/01 07:46:09;;;;;;;63.67;25.70;;;;;;;8.83;91.09;99676.66;5057300;28;20451;-28
2024/03/01 07:48:35;;;;;;;64.65;26.27;;;;;;;9.55;88.67;99672.78;5057465;28;20107;-28
2024/03/01 07:51:00;;;;;;;66.07;26.20;;;;;;;9.52;86.98;99673.16;5057431;28;20044;-27
2024/03/01 07:53:25;;;;;;;65.93;25.60;;;;;;;9.34;88.27;99669.19;5057608;28;20151;-26
2024/03/01 07:55:51;;;;;;;69.05;26.15;;;;;;;9.12;89.20;99668.50;5057580;28;20413;-27
2024/03/01 07:58:17;;;;;;;72.20;26.33;;;;;;;8.87;90.99;99669.94;5057379;28;20025;-27
2024/03/01 08:00:42;;;;;;;65.78;25.95;;;;;;;9.23;89.46;99683.03;5057532;28;20032;-27
2024/03/01 08:03:10;;;;;;;70.20;27.67;;;;;;;9.41;88.59;99682.53;5057261;28;20044;-27
2024/03/01 08:05:40;;;;;;;66.15;26.77;;;;;;;9.32;87.95;99686.34;5057329;28;20032;-27
2024/03/01 08:08:07;;;;;;;63.92;27.15;;;;;;;9.46;87.95;99677.44;5057330;28;20029;-27
2024/03/01 08:10:34;;;;;;;67.80;27.10;;;;;;;9.58;86.74;99675.03;5057258;28;20485;-28
2024/03/01 08:13:01;;;;;;;73.13;27.60;;;;;;;9.68;86.31;99669.34;5057330;28;20025;-27
2024/03/01 08:15:30;;;;;;;64.38;25.52;;;;;;;9.03;89.43;99692.75;5057379;28;20516;-27
2024/03/01 08:17:56;;;;;;;69.38;27.35;;;;;;;9.08;89.92;99682.34;5057460;28;20040;-28
2024/03/01 08:21:02;;;;;;;67.93;27.92;;;;;;;9.03;90.39;99687.44;5056973;28;20404;-27
2024/03/01 08:23:28;;;;;;;66.50;27.50;;;;;;;9.08;89.43;99671.72;5056131;28;20122;-29
2024/03/01 08:25:54;;;;;;;70.47;26.45;;;;;;;9.06;89.70;99669.25;5056728;28;20142;-28
2024/03/01 08:28:26;;;;;;;65.97;26.27;;;;;;;8.82;91.19;99670.53;5057278;28;20061;-28
2024/03/01 08:30:52;;;;;;;60.22;24.63;;;;;;;8.70;91.56;99661.47;5057133;28;20032;-27
2024/03/01 08:33:19;;;;;;;62.70;25.33;;;;;;;8.57;92.98;99665.66;5056872;28;20031;-27
2024/03/01 08:35:46;;;;;;;59.00;25.20;;;;;;;8.89;91.51;99673.22;5056750;28;20094;-28
2024/03/01 08:38:36;;;;;;;64.60;26.05;;;;;;;9.17;90.09;99683.81;5056456;28;20181;-28
2024/03/01 08:41:03;;;;;;;65.18;26.42;;;;;;;9.69;87.36;99682.44;5056501;28;20511;-28
2024/03/01 08:43:29;;;;;;;61.05;26.23;;;;;;;9.40;87.68;99686.19;5053034;28;20041;-27
2024/03/01 08:45:58;;;;;;;54.38;23.50;;;;;;;9.17;88.69;99674.00;5053793;28;20027;-27
2024/03/01 08:48:23;;;;;;;54.88;24.00;;;;;;;9.27;89.29;99683.47;5053572;28;20488;-27
2024/03/01 08:50:50;;;;;;;54.83;24.17;;;;;;;9.44;87.42;99687.44;5053711;28;20036;-29
2024/03/01 08:53:44;;;;;;;56.78;24.55;;;;;;;9.73;86.72;99694.31;5054135;28;20452;-27
2024/03/01 08:56:20;;;;;;;62.00;25.63;;;;;;;9.53;86.57;99685.44;5053192;28;20044;-28
2024/03/01 08:58:46;;;;;;;54.42;24.73;;;;;;;9.70;86.18;99673.44;5053812;28;20037;-27
2024/03/01 09:01:42;;;;;;;61.08;24.77;;;;;;;9.84;86.48;99665.50;5053318;28;20596;-29
2024/03/01 09:04:19;;;;;;;58.13;24.90;;;;;;;9.49;87.75;99673.56;5051780;28;20083;-27
2024/03/01 09:06:55;;;;;;;54.22;24.67;;;;;;;9.51;86.82;99675.00;5050438;28;20509;-28
2024/03/01 09:09:22;;;;;;;62.47;26.90;;;;;;;9.49;86.83;99676.22;5053901;28;20370;-27
2024/03/01 09:11:53;;;;;;;61.30;26.35;;;;;;;9.43;86.76;99677.84;5053649;28;20044;-26
2024/03/01 09:14:28;;;;;;;61.20;26.85;;;;;;;9.52;87.23;99695.25;5053198;28;20017;-27
2024/03/01 09:16:54;;;;;;;61.35;25.67;;;;;;;9.49;86.58;99695.63;5053809;28;20021;-28
2024/03/01 09:19:22;;;;;;;58.42;25.05;;;;;;;9.59;87.04;99680.16;5053602;28;20040;-27
2024/03/01 09:21:48;;;;;;;58.50;27.50;;;;;;;9.88;85.76;99659.59;5053651;28;20028;-27
2024/03/01 09:24:15;;;;;;;63.80;28.10;;;;;;;9.93;84.47;99666.97;5053696;28;20441;-29
2024/03/01 09:26:42;;;;;;;60.30;28.00;;;;;;;9.67;86.28;99673.84;5053468;28;20220;-27
2024/03/01 09:29:17;;;;;;;59.40;27.83;;;;;;;9.67;85.23;99665.03;5051487;28;20028;-27
2024/03/01 09:31:42;;;;;;;64.75;27.55;;;;;;;9.63;85.98;99671.78;5045209;28;20382;-27
2024/03/01 09:34:09;;;;;;;71.20;29.15;;;;;;;9.78;85.66;99670.59;5033097;28;20086;-27
2024/03/01 09:36:35;;;;;;;63.53;27.50;;;;;;;9.65;85.82;99677.72;5034638;28;20178;-29
2024/03/01 09:39:04;;;;;;;69.30;28.30;;;;;;;9.10;87.74;99675.00;5052721;28;20103;-28
2024/03/01 09:41:37;;;;;;;;;;;;;;;9.41;87.16;99669.25;5052934;28;20024;-28
2024/03/01 09:44:37;;;;;;;67.47;28.02;;;;;;;9.39;87.81;99666.78;5052911;28;19909;-28
2024/03/01 09:47:36;;;;;;;67.18;28.63;;;;;;;9.64;86.64;99658.31;5052797;28;20051;-28
2024/03/01 09:50:18;;;;;;;71.85;28.40;;;;;;;9.79;84.88;99656.31;5049634;28;20124;-30
2024/03/01 09:52:58;;;;;;;57.58;28.58;;;;;;;9.89;85.16;99669.19;5052496;28;20017;-28
2024/03/01 09:55:46;;;;;;;65.45;27.75;;;;;;;9.57;86.77;99668.06;5052307;28;20029;-30
2024/03/01 09:58:21;;;;;;;66.70;29.88;;;;;;;10.43;83.44;99675.44;5052403;28;20029;-27
2024/03/01 10:01:13;;;;;;;62.53;28.13;;;;;;;10.01;84.39;99663.31;5052663;28;20017;-26
2024/03/01 10:04:01;;;;;;;63.55;27.90;;;;;;;10.13;83.72;99656.38;5052288;28;20025;-28
2024/03/01 10:07:01;;;;;;;64.05;28.40;;;;;;;10.18;84.77;99659.22;5052430;28;20083;-30
2024/03/01 10:09:54;;;;;;;59.42;27.15;;;;;;;10.60;82.54;99654.56;5052094;28;20025;-27
2024/03/01 10:12:20;;;;;;;60.17;27.08;;;;;;;10.44;82.17;99663.78;5052017;28;20104;-27
2024/03/01 10:14:59;;;;;;;60.60;27.33;;;;;;;10.57;80.73;99650.50;5051534;28;20028;-27
2024/03/01 10:17:45;;;;;;;54.65;27.40;;;;;;;9.95;84.42;99660.41;5052164;28;20017;-28
2024/03/01 10:20:37;;;;;;;64.15;29.02;;;;;;;10.32;83.23;99671.56;5052138;28;20027;-27
2024/03/01 10:23:09;;;;;;;59.00;27.55;;;;;;;10.21;82.65;99664.16;5052267;28;20035;-29
2024/03/01 10:25:48;;;;;;;63.45;27.77;;;;;;;9.69;86.53;99660.34;5051716;28;20505;-27
2024/03/01 10:28:15;;;;;;;64.43;28.00;;;;;;;9.76;85.39;99659.34;5052015;28;20027;-26
2024/03/01 10:30:55;;;;;;;60.42;28.55;;;;;;;9.96;84.89;99654.09;5052073;28;20029;-28
2024/03/01 10:33:48;;;;;;;61.33;28.52;;;;;;;9.79;86.34;99647.50;5051972;28;20049;-27
2024/03/01 10:36:41;;;;;;;58.05;27.05;;;;;;;9.92;84.84;99633.44;5033642;28;20106;-26
2024/03/01 10:39:16;;;;;;;64.15;28.38;;;;;;;10.00;84.63;99635.09;5051758;28;20039;-28
2024/03/01 10:42:02;;;;;;;65.43;28.95;;;;;;;10.32;83.25;99644.16;5051535;28;20060;-28
2024/03/01 10:44:40;;;;;;;64.18;28.85;;;;;;;10.26;83.95;99626.31;5043843;28;20049;-28
2024/03/01 10:47:25;;;;;;;60.33;26.05;;;;;;;9.37;87.51;99620.19;5051680;28;20032;-28
2024/03/01 10:50:21;;;;;;;55.70;26.98;;;;;;;9.50;86.72;99611.44;5051396;28;20033;-28
2024/03/01 10:53:14;;;;;;;65.85;29.42;;;;;;;10.02;84.11;99622.41;5051921;28;20086;-26
2024/03/01 10:55:42;;;;;;;61.58;28.67;;;;;;;9.86;84.79;99613.81;5050929;28;20032;-28
2024/03/01 10:58:19;;;;;;;66.53;29.65;;;;;;;10.28;83.97;99617.13;5049920;28;20139;-27
2024/03/01 11:01:22;;;;;;;71.07;30.08;;;;;;;11.01;81.32;99616.22;5051324;28;20033;-27
2024/03/01 11:03:53;;;;;;;69.05;30.00;;;;;;;11.45;78.25;99621.81;5051187;28;20037;-27
2024/03/01 11:06:40;;;;;;;67.50;30.30;;;;;;;10.94;79.15;99615.41;5050709;28;20494;-27
2024/03/01 11:09:40;;;;;;;67.25;29.33;;;;;;;10.93;78.17;99598.63;5051167;28;20029;-28
2024/03/01 11:12:19;;;;;;;64.95;28.20;;;;;;;10.84;79.61;99596.41;5051404;28;20025;-27
2024/03/01 11:14:55;;;;;;;63.33;28.88;;;;;;;11.04;79.13;99607.81;5051267;28;20032;-27
2024/03/01 11:17:25;;;;;;;65.28;28.90;;;;;;;11.35;77.44;99600.94;5051505;28;20150;-28
2024/03/01 11:19:55;;;;;;;70.13;30.55;;;;;;;11.62;77.42;99593.63;5051090;28;20485;-27
2024/03/01 11:22:24;;;;;;;63.83;28.85;;;;;;;11.32;77.52;99590.69;5051290;28;20035;-28
2024/03/01 11:25:19;;;;;;;66.53;28.70;;;;;;;11.42;77.57;99600.91;5050856;28;20057;-27
2024/03/01 11:28:00;;;;;;;59.97;28.15;;;;;;;11.15;78.94;99601.00;5051322;28;20035;-28
2024/03/01 11:30:30;;;;;;;60.15;27.77;;;;;;;11.21;78.69;99588.69;5050935;28;20048;-29